Time;durP1;ratioP1;P1;durP2;ratioP2;P2;SDS_P1;SDS_P2;PMS_P1;PMS_P2;Temp;Humidity;BMP_temperature;BMP_pressure;BME280_temperature;BME280_humidity;BME280_pressure;Samples;Min_cycle;Max_cycle;Signal;HPM_P1;HPM_P2
2022/09/11 00:00:58;;;;;;;0.30;0.30;;;13.90;99.90;;;;;;5074322;28;20440;-87
2022/09/11 00:03:26;;;;;;;0.40;0.30;;;13.90;99.90;;;;;;5074009;28;20510;-88
2022/09/11 00:05:55;;;;;;;0.40;0.30;;;14.00;99.90;;;;;;5074234;28;20451;-88
2022/09/11 00:08:22;;;;;;;0.30;0.30;;;14.00;99.90;;;;;;5074152;28;20436;-87
2022/09/11 00:10:49;;;;;;;0.40;0.40;;;13.90;99.90;;;;;;5074174;28;20807;-88
2022/09/11 00:13:20;;;;;;;0.60;0.57;;;13.90;99.90;;;;;;5074062;28;21026;-88
2022/09/11 00:15:47;;;;;;;0.30;0.30;;;13.80;99.90;;;;;;5074269;28;20483;-87
2022/09/11 00:18:16;;;;;;;0.40;0.30;;;14.00;99.90;;;;;;5074691;28;20445;-88
2022/09/11 00:20:49;;;;;;;0.40;0.40;;;14.00;99.90;;;;;;5074495;28;20456;-88
2022/09/11 00:23:17;;;;;;;1.37;0.40;;;14.00;99.90;;;;;;5074117;28;20506;-88
2022/09/11 00:25:45;;;;;;;0.30;0.20;;;14.00;99.90;;;;;;5074652;28;20429;-88
2022/09/11 00:28:14;;;;;;;0.30;0.30;;;14.10;99.90;;;;;;5074063;28;20492;-88
2022/09/11 00:30:41;;;;;;;0.40;0.30;;;14.10;99.90;;;;;;5074248;28;20456;-87
2022/09/11 00:33:08;;;;;;;0.40;0.30;;;14.10;99.90;;;;;;5073801;28;20476;-88
2022/09/11 00:35:35;;;;;;;0.50;0.30;;;14.20;99.90;;;;;;5074120;28;20452;-88
2022/09/11 00:38:01;;;;;;;0.40;0.30;;;14.20;99.90;;;;;;5074095;28;20455;-88
2022/09/11 00:40:29;;;;;;;0.40;0.30;;;14.20;99.90;;;;;;5076264;28;20967;-88
2022/09/11 00:42:57;;;;;;;0.70;0.60;;;14.20;99.90;;;;;;5077847;28;20460;-88
2022/09/11 00:45:26;;;;;;;0.30;0.30;;;14.20;99.90;;;;;;5077514;28;20932;-88
2022/09/11 00:47:57;;;;;;;0.30;0.30;;;14.10;99.90;;;;;;5077589;28;20456;-88
2022/09/11 00:50:27;;;;;;;0.30;0.30;;;14.10;99.90;;;;;;5077705;28;20823;-88
2022/09/11 00:52:57;;;;;;;0.77;0.30;;;14.10;99.90;;;;;;5077561;28;20487;-88
2022/09/11 00:55:27;;;;;;;0.70;0.33;;;14.10;99.90;;;;;;5077750;28;20429;-88
2022/09/11 00:57:59;;;;;;;0.40;0.30;;;14.10;99.90;;;;;;5077865;28;20467;-88
2022/09/11 01:00:26;;;;;;;0.40;0.30;;;14.00;99.90;;;;;;5077679;28;20779;-89
2022/09/11 01:02:54;;;;;;;1.43;0.73;;;13.90;99.90;;;;;;5077402;28;20473;-88
2022/09/11 01:05:23;;;;;;;0.30;0.30;;;13.90;99.90;;;;;;5077879;28;20455;-88
2022/09/11 01:07:53;;;;;;;1.57;0.50;;;13.90;99.90;;;;;;5077116;28;20492;-88
2022/09/11 01:10:23;;;;;;;0.43;0.43;;;13.90;99.90;;;;;;5077536;28;20441;-88
2022/09/11 01:12:59;;;;;;;0.50;0.50;;;13.90;99.90;;;;;;5077131;28;20488;-88
2022/09/11 01:15:35;;;;;;;0.40;0.30;;;14.00;99.90;;;;;;5077414;28;20464;-88
2022/09/11 01:18:09;;;;;;;0.83;0.63;;;14.00;99.90;;;;;;5076812;28;20847;-86
2022/09/11 01:20:52;;;;;;;0.40;0.30;;;14.00;99.90;;;;;;5076368;28;20458;-86
2022/09/11 01:23:48;;;;;;;0.40;0.30;;;14.10;99.90;;;;;;5076300;28;20465;-84
2022/09/11 01:26:52;;;;;;;0.30;0.30;;;14.00;99.90;;;;;;5076235;28;20465;-84
2022/09/11 01:29:26;;;;;;;0.57;0.30;;;13.90;99.90;;;;;;5044948;28;20459;-86
2022/09/11 01:32:01;;;;;;;0.40;0.40;;;13.90;99.90;;;;;;5076351;28;20425;-86
2022/09/11 01:34:34;;;;;;;0.43;0.37;;;13.80;99.90;;;;;;5076703;28;20439;-86
2022/09/11 01:37:07;;;;;;;0.40;0.33;;;13.80;99.90;;;;;;5076655;28;20437;-87
2022/09/11 01:39:41;;;;;;;0.43;0.43;;;13.80;99.90;;;;;;5076488;28;20421;-87
2022/09/11 01:42:15;;;;;;;0.70;0.30;;;13.80;99.90;;;;;;5076595;28;21152;-87
2022/09/11 01:44:47;;;;;;;0.40;0.40;;;13.80;99.90;;;;;;5077008;28;20523;-87
2022/09/11 01:47:17;;;;;;;0.40;0.30;;;13.80;99.90;;;;;;5076722;28;20483;-87
2022/09/11 01:49:47;;;;;;;0.30;0.20;;;13.80;99.90;;;;;;5076340;28;20466;-87
2022/09/11 01:52:20;;;;;;;0.60;0.40;;;13.80;99.90;;;;;;5076321;28;20485;-88
2022/09/11 01:54:51;;;;;;;0.40;0.40;;;13.80;99.90;;;;;;5076602;28;20434;-88
2022/09/11 01:57:24;;;;;;;0.90;0.90;;;13.70;99.90;;;;;;5076332;28;20503;-88
2022/09/11 01:59:56;;;;;;;0.30;0.30;;;13.80;99.90;;;;;;5076476;28;20434;-88
2022/09/11 02:02:28;;;;;;;0.40;0.40;;;13.70;99.90;;;;;;5076481;28;20475;-87
2022/09/11 02:05:02;;;;;;;0.40;0.30;;;13.80;99.90;;;;;;5077226;28;20839;-87
2022/09/11 02:07:34;;;;;;;0.40;0.30;;;13.70;99.90;;;;;;5076393;28;20455;-88
2022/09/11 02:10:06;;;;;;;0.40;0.30;;;13.70;99.90;;;;;;5076328;28;20436;-88
2022/09/11 02:12:40;;;;;;;0.50;0.40;;;13.60;99.90;;;;;;5076868;28;20495;-87
2022/09/11 02:15:10;;;;;;;0.30;0.30;;;13.70;99.90;;;;;;5076213;28;20434;-87
2022/09/11 02:17:46;;;;;;;0.40;0.30;;;13.70;99.90;;;;;;5077289;28;20795;-87
2022/09/11 02:20:15;;;;;;;0.40;0.40;;;13.70;99.90;;;;;;5075994;28;20436;-87
2022/09/11 02:22:42;;;;;;;0.43;0.40;;;13.70;99.90;;;;;;5075506;28;20972;-87
2022/09/11 02:25:09;;;;;;;0.50;0.50;;;13.70;99.90;;;;;;5075751;28;20436;-87
2022/09/11 02:27:36;;;;;;;0.30;0.30;;;13.80;99.90;;;;;;5075556;28;20476;-87
2022/09/11 02:30:02;;;;;;;0.40;0.40;;;13.70;99.90;;;;;;5075462;28;20955;-87
2022/09/11 02:32:31;;;;;;;0.40;0.30;;;13.70;99.90;;;;;;5075520;28;20481;-87
2022/09/11 02:34:59;;;;;;;0.77;0.40;;;13.70;99.90;;;;;;5075285;28;20437;-87
2022/09/11 02:37:38;;;;;;;0.40;0.40;;;13.70;99.90;;;;;;5075539;28;20444;-87
2022/09/11 02:40:28;;;;;;;0.30;0.30;;;13.70;99.90;;;;;;5075389;28;20459;-86
2022/09/11 02:43:09;;;;;;;0.40;0.30;;;13.80;99.90;;;;;;5075473;28;20826;-87
2022/09/11 02:45:44;;;;;;;0.37;0.30;;;13.70;99.90;;;;;;5075816;28;20445;-87
2022/09/11 02:48:29;;;;;;;0.30;0.30;;;13.80;99.90;;;;;;5075473;28;20429;-87
2022/09/11 02:51:01;;;;;;;0.37;0.30;;;13.80;99.90;;;;;;5075257;28;20923;-87
2022/09/11 02:53:38;;;;;;;0.40;0.30;;;13.80;99.90;;;;;;5075095;28;20492;-87
2022/09/11 02:56:10;;;;;;;1.00;0.43;;;13.80;99.90;;;;;;5075517;28;20444;-87
2022/09/11 02:58:40;;;;;;;0.30;0.30;;;13.80;99.90;;;;;;5075200;28;20425;-87
2022/09/11 03:01:08;;;;;;;0.50;0.50;;;13.80;99.90;;;;;;5074960;28;20446;-87
2022/09/11 03:03:40;;;;;;;0.40;0.40;;;13.90;99.90;;;;;;5074414;28;20472;-87
2022/09/11 03:06:10;;;;;;;0.50;0.50;;;13.90;99.90;;;;;;5074949;28;20445;-87
2022/09/11 03:08:37;;;;;;;0.40;0.40;;;13.90;99.90;;;;;;5074832;28;20441;-87
2022/09/11 03:11:03;;;;;;;0.30;0.30;;;13.90;99.90;;;;;;5074667;28;20440;-87
2022/09/11 03:13:30;;;;;;;0.40;0.40;;;13.90;99.90;;;;;;5074598;28;20841;-86
2022/09/11 03:15:57;;;;;;;0.30;0.30;;;13.90;99.90;;;;;;5074751;28;20444;-87
2022/09/11 03:18:24;;;;;;;0.83;0.30;;;13.90;99.90;;;;;;5074915;28;20445;-87
2022/09/11 03:20:52;;;;;;;0.40;0.30;;;13.90;99.90;;;;;;5074276;28;20956;-87
2022/09/11 03:23:19;;;;;;;0.40;0.40;;;13.90;99.90;;;;;;5074503;28;20459;-87
2022/09/11 03:25:46;;;;;;;0.40;0.40;;;13.90;99.90;;;;;;5074177;28;20444;-87
2022/09/11 03:28:12;;;;;;;0.60;0.40;;;13.90;99.90;;;;;;5073147;28;20849;-86
2022/09/11 03:30:40;;;;;;;0.40;0.30;;;13.90;99.90;;;;;;5073983;28;20449;-87
2022/09/11 03:33:07;;;;;;;0.40;0.37;;;13.90;99.90;;;;;;5073506;28;20481;-87
2022/09/11 03:35:35;;;;;;;0.40;0.40;;;13.90;99.90;;;;;;5073663;28;20983;-87
2022/09/11 03:38:03;;;;;;;0.50;0.40;;;13.90;99.90;;;;;;5073706;28;20453;-86
2022/09/11 03:40:30;;;;;;;0.40;0.30;;;14.00;99.90;;;;;;5073474;28;20967;-87
2022/09/11 03:42:58;;;;;;;1.40;0.50;;;14.00;99.90;;;;;;5073451;28;20461;-87
2022/09/11 03:45:25;;;;;;;0.40;0.30;;;14.10;99.90;;;;;;5073948;28;20507;-87
2022/09/11 03:47:52;;;;;;;0.70;0.40;;;14.10;99.90;;;;;;5073389;28;20453;-87
2022/09/11 03:50:19;;;;;;;0.40;0.40;;;14.10;99.90;;;;;;5073597;28;20490;-86
2022/09/11 03:52:46;;;;;;;1.90;0.70;;;14.10;99.90;;;;;;5073236;28;20456;-87
2022/09/11 03:55:15;;;;;;;0.30;0.30;;;14.10;99.90;;;;;;5073540;28;20496;-87
2022/09/11 03:57:42;;;;;;;3.33;0.53;;;14.20;99.90;;;;;;5073450;28;20441;-87
2022/09/11 04:00:10;;;;;;;0.70;0.50;;;14.20;99.90;;;;;;5073448;28;20444;-89
2022/09/11 04:02:37;;;;;;;0.80;0.47;;;14.20;99.90;;;;;;5073253;28;20471;-90
2022/09/11 04:05:04;;;;;;;0.50;0.40;;;14.30;99.90;;;;;;5073272;28;20812;-87
2022/09/11 04:07:31;;;;;;;0.30;0.30;;;14.30;99.90;;;;;;5073251;28;20460;-87
2022/09/11 04:09:57;;;;;;;0.40;0.40;;;14.30;99.90;;;;;;5073268;28;20951;-86
2022/09/11 04:12:26;;;;;;;1.03;1.03;;;14.40;99.90;;;;;;5073049;28;20467;-86
2022/09/11 04:14:52;;;;;;;0.37;0.33;;;14.30;99.90;;;;;;5071514;28;20484;-87
2022/09/11 04:17:19;;;;;;;0.50;0.40;;;14.40;99.90;;;;;;5072946;28;20437;-87
2022/09/11 04:19:46;;;;;;;0.40;0.30;;;14.40;99.90;;;;;;5073133;28;20464;-87
2022/09/11 04:22:12;;;;;;;0.40;0.30;;;14.30;99.90;;;;;;5073062;28;20471;-87
2022/09/11 04:24:39;;;;;;;0.53;0.53;;;14.30;99.90;;;;;;5073126;28;20536;-87
2022/09/11 04:27:06;;;;;;;0.50;0.43;;;14.30;99.90;;;;;;5037025;28;1041809;-87
2022/09/11 04:29:34;;;;;;;0.43;0.40;;;14.30;99.90;;;;;;5073839;28;20210;-86
2022/09/11 04:32:01;;;;;;;0.30;0.30;;;14.30;99.90;;;;;;5073991;28;20448;-87
2022/09/11 04:34:28;;;;;;;0.50;0.50;;;14.30;99.90;;;;;;5073432;28;20477;-87
2022/09/11 04:36:55;;;;;;;1.33;0.60;;;14.20;99.90;;;;;;5073478;28;20936;-87
2022/09/11 04:39:22;;;;;;;0.30;0.30;;;14.30;99.90;;;;;;5074425;28;20444;-87
2022/09/11 04:41:49;;;;;;;0.30;0.30;;;14.30;99.90;;;;;;5073588;28;20452;-87
2022/09/11 04:44:15;;;;;;;0.83;0.47;;;14.30;99.90;;;;;;5073456;28;20444;-87
2022/09/11 04:46:44;;;;;;;0.33;0.30;;;14.30;99.90;;;;;;5073919;28;20464;-87
2022/09/11 04:49:11;;;;;;;0.63;0.40;;;14.30;99.90;;;;;;5074152;28;20437;-87
2022/09/11 04:51:39;;;;;;;0.70;0.60;;;14.30;99.90;;;;;;5073839;28;20490;-86
2022/09/11 04:54:07;;;;;;;0.40;0.37;;;14.30;99.90;;;;;;5073526;28;20487;-87
2022/09/11 04:56:36;;;;;;;0.83;0.40;;;14.30;99.90;;;;;;5073548;28;20453;-87
2022/09/11 04:59:07;;;;;;;0.40;0.30;;;14.30;99.90;;;;;;5073438;28;20484;-87
2022/09/11 05:01:34;;;;;;;0.57;0.57;;;14.30;99.90;;;;;;5073589;28;20478;-87
2022/09/11 05:04:02;;;;;;;0.80;0.67;;;14.40;99.90;;;;;;5073485;28;20563;-87
2022/09/11 05:06:30;;;;;;;0.57;0.57;;;14.40;99.90;;;;;;5073157;28;20936;-86
2022/09/11 05:09:00;;;;;;;0.40;0.40;;;14.40;99.90;;;;;;5073267;28;20433;-86
2022/09/11 05:11:28;;;;;;;0.40;0.40;;;14.40;99.90;;;;;;5073292;28;20974;-86
2022/09/11 05:13:57;;;;;;;0.40;0.33;;;14.40;99.90;;;;;;5073217;28;20496;-87
2022/09/11 05:16:25;;;;;;;1.17;1.07;;;14.40;99.90;;;;;;5073448;28;20445;-86
2022/09/11 05:18:53;;;;;;;0.50;0.33;;;14.40;99.90;;;;;;5073629;28;20448;-87
2022/09/11 05:21:23;;;;;;;1.90;0.93;;;14.50;99.90;;;;;;5073660;28;20449;-87
2022/09/11 05:23:51;;;;;;;0.40;0.40;;;14.50;99.90;;;;;;5073379;28;20960;-85
2022/09/11 05:26:18;;;;;;;0.87;0.30;;;14.50;99.90;;;;;;5075354;28;20996;-86
2022/09/11 05:28:45;;;;;;;0.40;0.30;;;14.50;99.90;;;;;;5077685;28;20437;-86
2022/09/11 05:31:14;;;;;;;0.60;0.60;;;14.50;99.90;;;;;;5076603;28;20968;-85
2022/09/11 05:33:41;;;;;;;0.87;0.60;;;14.50;99.90;;;;;;5076552;28;20476;-86
2022/09/11 05:36:09;;;;;;;0.40;0.40;;;14.60;99.90;;;;;;5076603;28;20434;-87
2022/09/11 05:38:37;;;;;;;1.27;0.40;;;14.60;99.90;;;;;;5077116;28;20441;-87
2022/09/11 05:41:06;;;;;;;0.40;0.40;;;14.60;99.90;;;;;;5076923;28;20452;-87
2022/09/11 05:43:33;;;;;;;0.70;0.50;;;14.60;99.90;;;;;;5076469;28;20529;-87
2022/09/11 05:46:00;;;;;;;0.60;0.40;;;14.60;99.90;;;;;;5076531;28;20456;-87
2022/09/11 05:48:28;;;;;;;0.73;0.73;;;14.60;99.90;;;;;;5076668;28;20421;-87
2022/09/11 05:50:57;;;;;;;0.40;0.37;;;14.60;99.90;;;;;;5076555;28;20453;-87
2022/09/11 05:53:24;;;;;;;0.40;0.40;;;14.70;99.90;;;;;;5076209;28;20855;-87
2022/09/11 05:55:52;;;;;;;1.50;0.50;;;14.70;99.90;;;;;;5076727;28;20453;-87
2022/09/11 05:58:19;;;;;;;0.50;0.50;;;14.70;99.90;;;;;;5077174;28;20437;-87
2022/09/11 06:00:47;;;;;;;0.67;0.63;;;14.70;99.90;;;;;;5076718;28;20448;-87
2022/09/11 06:03:14;;;;;;;0.60;0.50;;;14.80;99.90;;;;;;5076042;28;20464;-86
2022/09/11 06:05:41;;;;;;;0.40;0.40;;;14.80;99.90;;;;;;5076044;28;20449;-87
2022/09/11 06:08:08;;;;;;;0.40;0.40;;;14.90;99.90;;;;;;5075938;28;20944;-87
2022/09/11 06:10:35;;;;;;;0.70;0.50;;;14.80;99.90;;;;;;5076374;28;20440;-87
2022/09/11 06:13:03;;;;;;;2.80;0.50;;;14.90;99.90;;;;;;5075993;28;20460;-87
2022/09/11 06:15:31;;;;;;;0.50;0.40;;;14.90;99.90;;;;;;5076776;28;20491;-87
2022/09/11 06:17:58;;;;;;;0.70;0.40;;;14.90;99.90;;;;;;5075927;28;20506;-87
2022/09/11 06:20:25;;;;;;;4.43;0.60;;;14.90;99.90;;;;;;5076719;28;20453;-87
2022/09/11 06:22:53;;;;;;;0.70;0.40;;;15.00;99.90;;;;;;5075645;28;20479;-87
2022/09/11 06:25:20;;;;;;;0.50;0.50;;;15.00;99.90;;;;;;5075987;28;20445;-87
2022/09/11 06:27:48;;;;;;;0.40;0.40;;;15.00;99.90;;;;;;5075660;28;20514;-87
2022/09/11 06:30:16;;;;;;;1.30;0.67;;;15.10;99.90;;;;;;5075794;28;20445;-87
2022/09/11 06:32:43;;;;;;;0.43;0.43;;;15.10;99.90;;;;;;5075402;28;20453;-87
2022/09/11 06:35:10;;;;;;;0.60;0.37;;;15.10;99.90;;;;;;5076002;28;20480;-86
2022/09/11 06:37:37;;;;;;;1.20;0.50;;;15.10;99.90;;;;;;5074365;28;20483;-87
2022/09/11 06:40:04;;;;;;;1.10;0.50;;;15.20;99.90;;;;;;5075581;28;20460;-87
2022/09/11 06:42:32;;;;;;;0.67;0.60;;;15.20;99.90;;;;;;5075580;28;20476;-87
2022/09/11 06:44:58;;;;;;;0.80;0.60;;;15.20;99.90;;;;;;5076099;28;20441;-87
2022/09/11 06:47:26;;;;;;;0.63;0.63;;;15.20;99.90;;;;;;5075401;28;20445;-87
2022/09/11 06:49:53;;;;;;;2.07;0.60;;;15.30;99.90;;;;;;5075235;28;20445;-87
2022/09/11 06:52:20;;;;;;;0.60;0.50;;;15.30;99.90;;;;;;5075988;28;20473;-87
2022/09/11 06:54:48;;;;;;;1.63;0.50;;;15.30;99.90;;;;;;5075322;28;20480;-87
2022/09/11 06:57:15;;;;;;;0.47;0.47;;;15.40;99.90;;;;;;5075191;28;20562;-87
2022/09/11 06:59:42;;;;;;;1.57;0.70;;;15.40;99.90;;;;;;5075402;28;20443;-87
2022/09/11 07:02:09;;;;;;;1.07;0.80;;;15.40;99.90;;;;;;5075141;28;20473;-87
2022/09/11 07:04:37;;;;;;;1.63;0.60;;;15.40;99.90;;;;;;5075182;28;20448;-87
2022/09/11 07:07:04;;;;;;;2.20;1.10;;;15.50;99.90;;;;;;5075331;28;20453;-87
2022/09/11 07:09:30;;;;;;;0.60;0.53;;;15.60;99.90;;;;;;5075173;28;20452;-87
2022/09/11 07:11:57;;;;;;;0.50;0.50;;;15.70;99.90;;;;;;5074906;28;20456;-87
2022/09/11 07:14:24;;;;;;;1.70;0.87;;;15.70;99.90;;;;;;5074953;28;20847;-88
2022/09/11 07:16:53;;;;;;;0.83;0.80;;;15.80;99.90;;;;;;5075079;28;20429;-88
2022/09/11 07:19:20;;;;;;;0.90;0.60;;;15.80;99.90;;;;;;5074956;28;20936;-87
2022/09/11 07:21:48;;;;;;;1.03;0.60;;;15.90;99.90;;;;;;5074983;28;20448;-88
2022/09/11 07:24:15;;;;;;;0.80;0.60;;;15.90;99.90;;;;;;5074829;28;20449;-88
2022/09/11 07:26:41;;;;;;;1.13;0.70;;;16.00;99.90;;;;;;5074599;28;20473;-87
2022/09/11 07:29:08;;;;;;;1.23;0.90;;;16.00;99.90;;;;;;5074777;28;20445;-88
2022/09/11 07:31:38;;;;;;;1.33;1.03;;;16.10;99.90;;;;;;5075099;28;20790;-88
2022/09/11 07:34:05;;;;;;;1.53;0.80;;;16.20;99.90;;;;;;5074259;28;20491;-88
2022/09/11 07:36:34;;;;;;;2.20;1.27;;;16.20;99.90;;;;;;5074660;28;20543;-87
2022/09/11 07:39:03;;;;;;;1.30;1.20;;;16.20;99.90;;;;;;5074646;28;20860;-87
2022/09/11 07:41:30;;;;;;;2.77;0.90;;;16.30;99.90;;;;;;5074429;28;20449;-88
2022/09/11 07:43:59;;;;;;;1.00;0.70;;;16.30;99.90;;;;;;5075281;28;20469;-89
2022/09/11 07:46:26;;;;;;;0.73;0.70;;;16.30;99.90;;;;;;5074662;28;20502;-87
2022/09/11 07:48:54;;;;;;;0.80;0.50;;;16.30;99.90;;;;;;5074233;28;20453;-88
2022/09/11 07:51:21;;;;;;;2.17;1.20;;;16.30;99.90;;;;;;5075204;28;20456;-88
2022/09/11 07:53:49;;;;;;;0.87;0.60;;;16.20;99.90;;;;;;5074448;28;20465;-88
2022/09/11 07:56:19;;;;;;;1.07;0.97;;;16.20;99.90;;;;;;5074533;28;20460;-88
2022/09/11 07:58:47;;;;;;;1.20;1.10;;;16.20;99.90;;;;;;5074995;28;20437;-88
2022/09/11 08:01:16;;;;;;;1.40;0.80;;;16.20;99.90;;;;;;5074498;28;20547;-88
2022/09/11 08:03:43;;;;;;;3.90;0.90;;;16.20;99.90;;;;;;5074549;28;20465;-88
2022/09/11 08:06:12;;;;;;;1.73;0.73;;;16.20;99.90;;;;;;5074396;28;20448;-88
2022/09/11 08:08:40;;;;;;;0.60;0.43;;;16.20;99.90;;;;;;5074506;28;20444;-88
2022/09/11 08:11:09;;;;;;;0.73;0.73;;;16.30;99.90;;;;;;5074208;28;20441;-89
2022/09/11 08:13:37;;;;;;;0.97;0.97;;;16.30;99.90;;;;;;5074452;28;20979;-89
2022/09/11 08:16:05;;;;;;;1.83;1.73;;;16.30;99.90;;;;;;5074183;28;20489;-88
2022/09/11 08:18:34;;;;;;;1.43;0.80;;;16.40;99.90;;;;;;5074397;28;20448;-88
2022/09/11 08:21:03;;;;;;;1.43;1.07;;;16.40;99.90;;;;;;5074228;28;20490;-88
2022/09/11 08:23:31;;;;;;;0.70;0.60;;;16.50;99.90;;;;;;5074165;28;20518;-88
2022/09/11 08:26:04;;;;;;;1.43;0.80;;;16.60;99.90;;;;;;5074536;28;20456;-88
2022/09/11 08:28:31;;;;;;;1.70;1.03;;;16.70;99.90;;;;;;5074135;28;20468;-88
2022/09/11 08:31:00;;;;;;;2.00;0.73;;;16.90;99.90;;;;;;5073719;28;20433;-88
2022/09/11 08:33:27;;;;;;;1.27;0.93;;;17.00;99.90;;;;;;5073994;28;20468;-88
2022/09/11 08:35:54;;;;;;;2.17;1.40;;;17.10;99.90;;;;;;5074755;28;20484;-88
2022/09/11 08:38:21;;;;;;;1.63;1.00;;;17.20;99.90;;;;;;5073602;28;20958;-88
2022/09/11 08:40:48;;;;;;;2.07;1.40;;;17.10;99.90;;;;;;5073891;28;20503;-88
2022/09/11 08:43:22;;;;;;;2.30;0.90;;;17.10;99.90;;;;;;5073800;28;20469;-88
2022/09/11 08:45:51;;;;;;;2.10;0.97;;;17.00;99.90;;;;;;5073467;28;20905;-88
2022/09/11 08:48:33;;;;;;;1.40;1.30;;;16.90;99.90;;;;;;5073945;28;20503;-88
2022/09/11 08:51:00;;;;;;;1.90;1.13;;;16.80;99.90;;;;;;5073525;28;20908;-88
2022/09/11 08:53:32;;;;;;;1.67;0.90;;;16.70;99.90;;;;;;5073471;28;21038;-88
2022/09/11 08:56:05;;;;;;;3.17;1.03;;;16.70;99.90;;;;;;5073274;28;20968;-88
2022/09/11 08:58:38;;;;;;;1.37;0.80;;;16.70;99.90;;;;;;5073644;28;20428;-88
2022/09/11 09:01:14;;;;;;;1.73;0.80;;;16.80;99.90;;;;;;5075193;28;20971;-88
2022/09/11 09:03:54;;;;;;;1.20;0.83;;;17.00;99.90;;;;;;5077223;28;20839;-87
2022/09/11 09:06:39;;;;;;;2.00;0.97;;;17.50;99.90;;;;;;5077137;28;20436;-86
2022/09/11 09:09:14;;;;;;;1.60;1.10;;;17.90;99.90;;;;;;5077527;28;20424;-87
2022/09/11 09:11:51;;;;;;;2.80;0.87;;;18.50;99.90;;;;;;5077015;28;20429;-86
2022/09/11 09:15:05;;;;;;;2.60;1.37;;;18.80;99.90;;;;;;5076823;28;20440;-86
2022/09/11 09:17:37;;;;;;;2.50;1.60;;;19.30;99.90;;;;;;5071621;28;20448;-85
2022/09/11 09:20:10;;;;;;;1.53;1.43;;;19.50;99.90;;;;;;5076544;28;20430;-86
2022/09/11 09:22:43;;;;;;;1.10;1.03;;;19.70;99.90;;;;;;5076649;28;20511;-85
2022/09/11 09:25:13;;;;;;;2.20;1.47;;;19.80;99.90;;;;;;5076845;28;20433;-86
2022/09/11 09:27:45;;;;;;;1.20;1.10;;;19.90;99.90;;;;;;5076068;28;20490;-86
2022/09/11 09:30:16;;;;;;;1.10;1.00;;;20.00;99.90;;;;;;5076621;28;20440;-86
2022/09/11 09:32:49;;;;;;;1.83;1.30;;;19.90;99.90;;;;;;5076180;28;20983;-86
2022/09/11 09:35:23;;;;;;;1.53;1.40;;;19.70;99.90;;;;;;5076077;28;20888;-85
2022/09/11 09:37:49;;;;;;;1.43;0.73;;;19.50;99.90;;;;;;5076275;28;20464;-86
2022/09/11 09:40:18;;;;;;;0.70;0.70;;;19.20;99.90;;;;;;5076383;28;20437;-85
2022/09/11 09:43:17;;;;;;;1.30;1.17;;;19.10;99.90;;;;;;5076116;28;20472;-85
2022/09/11 09:45:56;;;;;;;1.97;1.10;;;19.00;99.90;;;;;;5075784;28;20936;-86
2022/09/11 09:48:24;;;;;;;1.30;1.20;;;18.90;99.90;;;;;;5076330;28;20436;-77
2022/09/11 09:50:52;;;;;;;1.63;1.00;;;18.80;99.90;;;;;;5075991;28;20502;-77
2022/09/11 09:53:29;;;;;;;1.83;1.20;;;18.60;99.90;;;;;;5075368;28;20469;-76
2022/09/11 09:55:58;;;;;;;1.63;1.10;;;18.40;99.90;;;;;;5075689;28;20475;-76
2022/09/11 09:58:27;;;;;;;1.20;1.10;;;18.20;99.90;;;;;;5075612;28;20444;-76
2022/09/11 10:00:53;;;;;;;1.20;0.90;;;18.30;99.90;;;;;;5075662;28;20433;-76
2022/09/11 10:03:22;;;;;;;1.67;1.20;;;18.50;99.90;;;;;;5075245;28;20983;-77
2022/09/11 10:05:52;;;;;;;1.20;1.00;;;19.00;99.90;;;;;;5075374;28;20794;-77
2022/09/11 10:08:32;;;;;;;2.10;1.10;;;19.40;99.90;;;;;;5075248;28;20425;-77
2022/09/11 10:11:00;;;;;;;1.37;1.27;;;19.80;99.90;;;;;;5075549;28;20470;-77
2022/09/11 10:13:30;;;;;;;1.10;0.73;;;20.00;99.90;;;;;;5075309;28;20472;-77
2022/09/11 10:16:00;;;;;;;1.27;1.07;;;20.00;99.90;;;;;;5075502;28;20472;-77
2022/09/11 10:18:41;;;;;;;1.60;0.80;;;20.10;99.90;;;;;;5075300;28;20452;-77
2022/09/11 10:21:22;;;;;;;2.00;0.90;;;20.30;99.90;;;;;;5075541;28;20428;-77
2022/09/11 10:23:54;;;;;;;1.03;0.90;;;20.40;99.90;;;;;;5075093;28;20452;-77
2022/09/11 10:26:25;;;;;;;1.00;0.70;;;20.50;99.90;;;;;;5074941;28;20534;-77
2022/09/11 10:28:53;;;;;;;1.70;1.07;;;20.60;99.90;;;;;;5074826;28;20772;-79
2022/09/11 10:31:21;;;;;;;1.90;1.20;;;20.80;99.90;;;;;;5074709;28;20454;-78
2022/09/11 10:33:52;;;;;;;2.13;1.57;;;21.00;99.90;;;;;;5075043;28;20508;-78
2022/09/11 10:36:23;;;;;;;3.70;1.60;;;20.90;99.90;;;;;;5074923;28;20465;-77
2022/09/11 10:38:51;;;;;;;2.33;1.00;;;20.80;99.90;;;;;;5075413;28;20924;-78
2022/09/11 10:41:21;;;;;;;2.73;1.50;;;20.70;99.90;;;;;;5074957;28;20445;-77
2022/09/11 10:43:54;;;;;;;2.40;1.10;;;20.60;99.90;;;;;;5075577;28;20465;-77
2022/09/11 10:46:37;;;;;;;1.20;1.13;;;20.40;99.90;;;;;;5074823;28;20440;-77
2022/09/11 10:49:17;;;;;;;1.27;0.93;;;20.30;99.90;;;;;;5072581;28;20479;-77
2022/09/11 10:51:59;;;;;;;1.80;1.20;;;20.10;99.90;;;;;;5074642;28;20428;-77
2022/09/11 10:54:38;;;;;;;1.30;0.73;;;19.90;99.90;;;;;;5075068;28;20474;-77
2022/09/11 10:57:15;;;;;;;2.93;1.00;;;19.80;99.90;;;;;;5074639;28;20468;-77
2022/09/11 10:59:49;;;;;;;1.37;0.80;;;19.80;99.90;;;;;;5075173;28;20448;-77
2022/09/11 11:02:23;;;;;;;0.60;0.60;;;20.00;99.90;;;;;;5074355;28;20475;-77
2022/09/11 11:04:51;;;;;;;0.80;0.80;;;20.30;99.90;;;;;;5074394;28;20433;-77
2022/09/11 11:07:32;;;;;;;1.30;1.20;;;20.50;99.90;;;;;;5074233;28;20539;-76
2022/09/11 11:10:16;;;;;;;1.10;1.10;;;20.70;99.90;;;;;;5074204;28;20432;-77
2022/09/11 11:13:03;;;;;;;2.33;1.20;;;20.90;99.90;;;;;;5074175;28;20475;-77
2022/09/11 11:15:42;;;;;;;1.40;1.10;;;21.00;99.90;;;;;;5074152;28;20468;-77
2022/09/11 11:18:31;;;;;;;1.43;1.20;;;21.00;99.90;;;;;;5074208;28;20436;-79
2022/09/11 11:21:08;;;;;;;0.70;0.70;;;20.80;99.90;;;;;;5073722;28;20527;-79
2022/09/11 11:24:06;;;;;;;1.43;0.80;;;20.70;99.90;;;;;;5073126;28;20475;-79
2022/09/11 11:26:46;;;;;;;0.93;0.83;;;20.60;99.90;;;;;;5067011;28;20487;-79
2022/09/11 11:29:25;;;;;;;2.50;1.70;;;20.60;99.90;;;;;;5074244;28;20868;-78
2022/09/11 11:32:09;;;;;;;1.17;0.70;;;20.50;99.90;;;;;;5073562;28;20927;-79
2022/09/11 11:35:00;;;;;;;3.03;1.40;;;20.50;99.90;;;;;;5073939;28;20429;-79
2022/09/11 11:37:31;;;;;;;2.10;0.87;;;20.60;99.90;;;;;;5073834;28;20453;-79
2022/09/11 11:40:02;;;;;;;1.00;0.80;;;20.90;99.90;;;;;;5073515;28;20884;-79
2022/09/11 11:42:37;;;;;;;1.57;0.80;;;21.10;99.90;;;;;;5073668;28;20469;-79
2022/09/11 11:45:10;;;;;;;2.93;0.90;;;21.30;99.90;;;;;;5073640;28;20436;-79
2022/09/11 11:47:41;;;;;;;1.70;1.13;;;21.40;99.90;;;;;;5073700;28;20444;-80
2022/09/11 11:50:17;;;;;;;0.90;0.70;;;21.50;99.90;;;;;;5073743;28;20456;-79
2022/09/11 11:52:53;;;;;;;1.37;1.10;;;21.40;99.90;;;;;;5073265;28;20471;-79
2022/09/11 11:55:25;;;;;;;1.57;1.00;;;21.20;99.90;;;;;;5073518;28;20526;-79
2022/09/11 11:58:05;;;;;;;1.03;0.90;;;21.20;99.90;;;;;;5073337;28;20414;-81
2022/09/11 12:00:37;;;;;;;1.37;0.67;;;21.20;99.90;;;;;;5073558;28;20433;-81
2022/09/11 12:03:09;;;;;;;1.07;0.97;;;21.20;99.90;;;;;;5073105;28;20819;-78
2022/09/11 12:05:39;;;;;;;4.60;1.10;;;21.20;99.90;;;;;;5073278;28;20989;-78
2022/09/11 12:08:12;;;;;;;1.43;0.90;;;21.20;99.90;;;;;;5073433;28;20501;-79
2022/09/11 12:10:43;;;;;;;1.93;1.27;;;21.10;99.90;;;;;;5073417;28;20429;-79
2022/09/11 12:13:15;;;;;;;1.07;0.80;;;21.00;99.90;;;;;;5073784;28;20472;-79
2022/09/11 12:16:02;;;;;;;1.10;1.00;;;21.00;99.90;;;;;;5073338;28;20485;-79
2022/09/11 12:18:29;;;;;;;1.50;1.10;;;21.00;99.90;;;;;;5073284;28;20440;-79
2022/09/11 12:21:34;;;;;;;2.10;0.90;;;21.10;99.90;;;;;;5073294;28;20820;-78
2022/09/11 12:24:16;;;;;;;2.93;0.93;;;21.20;99.90;;;;;;5073878;28;20478;-79
2022/09/11 12:26:43;;;;;;;1.00;0.60;;;21.30;99.90;;;;;;5073176;28;20562;-79
2022/09/11 12:29:50;;;;;;;0.87;0.87;;;21.20;99.90;;;;;;5073277;28;20493;-79
2022/09/11 12:32:40;;;;;;;0.80;0.80;;;21.10;99.90;;;;;;5073202;28;20475;-79
2022/09/11 12:35:24;;;;;;;0.73;0.70;;;21.00;99.90;;;;;;5073419;28;20970;-79
2022/09/11 12:37:56;;;;;;;2.23;0.90;;;21.10;99.90;;;;;;5077275;28;20455;-79
2022/09/11 12:40:38;;;;;;;1.00;0.90;;;21.10;99.90;;;;;;5077647;28;20444;-78
2022/09/11 12:43:45;;;;;;;1.13;0.93;;;21.00;99.90;;;;;;5076866;28;20863;-79
2022/09/11 12:46:34;;;;;;;1.50;1.40;;;20.90;99.90;;;;;;5077165;28;20437;-79
2022/09/11 12:49:08;;;;;;;0.93;0.60;;;20.80;99.90;;;;;;5077027;28;20439;-79
2022/09/11 12:51:38;;;;;;;0.70;0.70;;;20.80;99.90;;;;;;5077161;28;20436;-79
2022/09/11 12:54:21;;;;;;;0.73;0.60;;;20.70;99.90;;;;;;5077182;28;20444;-79
2022/09/11 12:56:53;;;;;;;1.00;0.77;;;20.50;99.90;;;;;;5076598;28;20467;-79
2022/09/11 12:59:24;;;;;;;0.90;0.70;;;20.50;99.90;;;;;;5076887;28;20444;-79
2022/09/11 13:01:52;;;;;;;1.50;0.83;;;20.60;99.90;;;;;;5076743;28;20439;-79
2022/09/11 13:04:24;;;;;;;1.90;1.30;;;20.80;99.90;;;;;;5076710;28;20447;-79
2022/09/11 13:06:54;;;;;;;1.43;1.33;;;20.90;99.90;;;;;;5076415;28;20908;-79
2022/09/11 13:09:26;;;;;;;0.90;0.70;;;21.10;99.90;;;;;;5076637;28;20788;-79